Time;durP1;ratioP1;P1;durP2;ratioP2;P2;SDS_P1;SDS_P2;PMS_P1;PMS_P2;Temp;Humidity;BMP_temperature;BMP_pressure;BME280_temperature;BME280_humidity;BME280_pressure;Samples;Min_cycle;Max_cycle;Signal;HPM_P1;HPM_P2
2022/01/04 00:04:23;;;;;;;4.30;1.00;;;;;;;19.34;57.78;95826.09;10368068;28;20535;-21
2022/01/04 00:09:24;;;;;;;2.88;1.45;;;;;;;19.35;57.93;95837.09;10368464;28;20368;-21
2022/01/04 00:14:25;;;;;;;3.08;1.20;;;;;;;19.27;57.77;95798.34;10378788;28;20600;-21
2022/01/04 00:19:25;;;;;;;3.72;1.10;;;;;;;19.34;58.38;95804.97;10404565;28;20037;-21
2022/01/04 00:24:25;;;;;;;4.20;1.30;;;;;;;19.34;58.16;95794.81;10408404;28;20033;-22
2022/01/04 00:29:26;;;;;;;4.73;1.27;;;;;;;19.34;58.04;95774.53;10394612;28;20042;-21
2022/01/04 00:34:26;;;;;;;3.00;1.60;;;;;;;19.37;57.59;95764.31;10367716;28;20471;-21
2022/01/04 00:39:27;;;;;;;4.73;1.43;;;;;;;19.34;57.80;95751.69;10367368;28;20048;-21
2022/01/04 00:44:27;;;;;;;1.95;0.90;;;;;;;19.34;58.22;95759.28;10367001;28;20092;-21
2022/01/04 00:49:28;;;;;;;3.70;1.35;;;;;;;19.34;57.74;95734.75;10367715;28;20033;-21
2022/01/04 00:54:28;;;;;;;3.47;1.10;;;;;;;19.34;58.04;95723.78;10372025;28;20042;-21
2022/01/04 00:59:29;;;;;;;2.75;1.10;;;;;;;19.33;58.01;95701.78;10374835;28;20061;-22
2022/01/04 01:04:29;;;;;;;3.65;1.05;;;;;;;19.26;58.08;95675.69;10375091;28;20045;-21
2022/01/04 01:09:34;;;;;;;3.72;1.10;;;;;;;19.33;58.12;95682.31;10374596;28;20029;-21
2022/01/04 01:14:35;;;;;;;2.58;1.00;;;;;;;19.31;58.10;95668.81;10401536;28;20063;-20
2022/01/04 01:19:37;;;;;;;4.80;1.27;;;;;;;19.34;57.81;95647.63;10410984;28;20569;-21
2022/01/04 01:24:38;;;;;;;4.20;1.05;;;;;;;19.36;57.75;95640.81;10415136;28;20565;-21
2022/01/04 01:29:38;;;;;;;4.20;1.40;;;;;;;19.35;57.87;95629.00;10392728;28;20122;-21
2022/01/04 01:34:38;;;;;;;3.50;1.03;;;;;;;19.23;58.12;95612.31;10374062;28;20030;-21
2022/01/04 01:39:40;;;;;;;4.23;0.93;;;;;;;19.31;58.18;95612.16;10374135;28;20539;-21
2022/01/04 01:44:42;;;;;;;2.80;1.10;;;;;;;19.28;57.88;95602.91;10373576;28;20309;-21
2022/01/04 01:49:43;;;;;;;5.38;1.25;;;;;;;19.34;57.99;95591.78;10373324;28;20034;-21
2022/01/04 01:54:43;;;;;;;6.43;1.20;;;;;;;19.30;57.90;95580.03;10373022;28;20480;-21
2022/01/04 01:59:43;;;;;;;2.80;1.10;;;;;;;19.34;57.74;95571.50;10373516;28;20570;-21
2022/01/04 02:04:44;;;;;;;4.77;1.13;;;;;;;19.33;58.00;95567.28;10371798;28;20029;-21
2022/01/04 02:09:52;;;;;;;2.33;1.00;;;;;;;19.32;57.67;95558.84;10372304;28;20860;-21
2022/01/04 02:14:54;;;;;;;5.22;0.82;;;;;;;19.33;57.85;95547.00;10386966;28;20038;-21
2022/01/04 02:19:59;;;;;;;2.33;1.30;;;;;;;19.30;57.85;95519.97;10408759;28;20069;-21
2022/01/04 02:25:00;;;;;;;6.80;1.13;;;;;;;19.33;57.90;95527.50;10413069;28;20030;-21
2022/01/04 02:30:02;;;;;;;3.75;1.08;;;;;;;19.33;57.98;95527.50;10379126;28;20037;-22
2022/01/04 02:35:04;;;;;;;3.20;1.05;;;;;;;19.30;58.32;95519.13;10371659;28;20033;-21
2022/01/04 02:40:05;;;;;;;6.60;1.20;;;;;;;19.32;57.91;95497.06;10371298;28;20048;-21
2022/01/04 02:45:08;;;;;;;2.35;0.93;;;;;;;19.32;58.15;95486.94;10370918;28;20091;-21
2022/01/04 02:50:09;;;;;;;2.50;0.73;;;;;;;19.32;57.84;95486.94;10371289;28;20037;-21
2022/01/04 02:55:13;;;;;;;2.80;0.90;;;;;;;19.33;58.16;95483.53;10370335;28;20452;-21
2022/01/04 03:00:15;;;;;;;4.30;2.17;;;;;;;19.30;58.07;95463.28;10370598;28;20045;-22
2022/01/04 03:05:16;;;;;;;1.75;1.05;;;;;;;19.33;57.77;95453.91;10370027;28;20041;-21
2022/01/04 03:10:16;;;;;;;2.53;0.90;;;;;;;19.33;57.70;95442.94;10370255;28;20029;-21
2022/01/04 03:15:17;;;;;;;4.15;1.23;;;;;;;19.29;58.00;95442.19;10387047;28;20048;-21
2022/01/04 03:20:17;;;;;;;2.53;0.85;;;;;;;19.33;57.76;95432.78;10406401;28;20411;-21
2022/01/04 03:25:17;;;;;;;1.90;0.80;;;;;;;19.33;57.87;95442.94;10410651;28;20037;-21
2022/01/04 03:30:18;;;;;;;2.60;0.80;;;;;;;19.30;58.03;95454.00;10390021;28;20033;-21
2022/01/04 03:35:18;;;;;;;3.65;0.98;;;;;;;19.32;58.09;95451.41;10369103;28;20124;-21
2022/01/04 03:40:19;;;;;;;1.63;0.82;;;;;;;19.30;58.19;95422.69;10369297;28;20038;-21
2022/01/04 03:45:19;;;;;;;3.10;1.45;;;;;;;19.31;58.06;95411.66;10369234;28;20100;-22
2022/01/04 03:50:19;;;;;;;2.55;0.70;;;;;;;19.31;58.05;95420.13;10369350;28;20049;-21
2022/01/04 03:55:20;;;;;;;2.60;0.90;;;;;;;19.30;58.00;95410.00;10368466;28;20092;-21
2022/01/04 04:00:20;;;;;;;4.72;1.30;;;;;;;19.34;57.50;95378.63;10367991;28;20296;-21
2022/01/04 04:05:21;;;;;;;2.13;0.73;;;;;;;19.33;57.86;95351.59;10368304;28;20409;-21
2022/01/04 04:10:21;;;;;;;2.57;1.37;;;;;;;19.32;58.24;95339.75;10367953;28;20291;-21
2022/01/04 04:15:21;;;;;;;2.70;0.93;;;;;;;19.30;57.85;95321.19;10386530;28;20793;-21
2022/01/04 04:20:22;;;;;;;2.88;1.50;;;;;;;19.32;57.91;95321.97;10405484;28;20303;-21
2022/01/04 04:25:23;;;;;;;1.75;0.73;;;;;;;19.30;57.93;95331.34;10405686;28;20100;-21
2022/01/04 04:30:23;;;;;;;3.80;1.20;;;;;;;19.31;58.10;95315.25;10367502;28;20030;-21
2022/01/04 04:35:24;;;;;;;2.67;0.90;;;;;;;19.30;58.01;95295.81;10367979;28;20053;-21
2022/01/04 04:40:24;;;;;;;3.92;1.13;;;;;;;19.30;57.99;95293.28;10367933;28;20296;-21
2022/01/04 04:45:25;;;;;;;2.38;0.70;;;;;;;19.33;57.82;95313.53;10366992;28;20034;-21
2022/01/04 04:50:25;;;;;;;1.88;0.80;;;;;;;19.34;57.59;95282.19;10367300;28;20084;-21
2022/01/04 04:55:25;;;;;;;3.05;0.80;;;;;;;19.31;57.85;95259.41;10367380;28;20036;-21
2022/01/04 05:00:26;;;;;;;3.70;0.97;;;;;;;19.35;57.43;95274.53;10367617;28;20484;-21
2022/01/04 05:05:26;;;;;;;3.17;1.20;;;;;;;19.37;57.77;95272.81;10368998;28;20570;-22
2022/01/04 05:10:27;;;;;;;2.30;0.73;;;;;;;19.37;57.79;95271.97;10366720;28;20026;-21
2022/01/04 05:15:27;;;;;;;4.65;0.68;;;;;;;19.39;57.49;95239.75;10385949;28;20095;-21
2022/01/04 05:20:27;;;;;;;1.93;0.67;;;;;;;19.39;57.68;95239.75;10403306;28;20409;-21
2022/01/04 05:25:28;;;;;;;7.45;2.20;;;;;;;19.39;57.00;95239.75;10406521;28;20090;-21
2022/01/04 05:30:28;;;;;;;10.33;3.60;;;;;;;19.42;57.73;95242.22;10384092;28;20504;-22
2022/01/04 05:35:29;;;;;;;9.90;3.72;;;;;;;19.43;57.95;95228.66;10366855;28;20489;-21
2022/01/04 05:40:29;;;;;;;7.97;3.27;;;;;;;19.44;57.75;95232.84;10369545;28;20030;-21
2022/01/04 05:45:30;;;;;;;6.35;2.97;;;;;;;19.45;57.73;95201.53;10373453;28;20324;-21
2022/01/04 05:50:31;;;;;;;7.18;2.00;;;;;;;19.42;57.60;95196.53;10373415;28;20045;-21
2022/01/04 05:55:31;;;;;;;5.47;2.00;;;;;;;19.42;57.61;95174.53;10373502;28;20026;-21
2022/01/04 06:00:32;;;;;;;2.90;2.08;;;;;;;19.41;57.55;95164.44;10372688;28;20033;-21
2022/01/04 06:05:32;;;;;;;6.72;1.58;;;;;;;19.40;57.73;95127.22;10373118;28;20041;-21
2022/01/04 06:10:38;;;;;;;4.38;1.42;;;;;;;19.42;57.56;95115.34;10372665;28;20025;-21
2022/01/04 06:15:40;;;;;;;3.85;1.30;;;;;;;19.42;57.60;95110.25;10391618;28;20160;-22
2022/01/04 06:20:41;;;;;;;3.15;1.45;;;;;;;19.40;57.49;95137.38;10398984;28;20034;-21
2022/01/04 06:25:42;;;;;;;3.50;1.10;;;;;;;19.40;57.31;95119.59;10412591;28;20063;-21
2022/01/04 06:30:43;;;;;;;5.50;2.85;;;;;;;19.41;57.37;95133.97;10387371;28;20042;-21
2022/01/04 06:35:43;;;;;;;3.55;1.27;;;;;;;19.41;57.35;95108.59;10371400;28;20120;-21
2022/01/04 06:40:43;;;;;;;2.63;1.00;;;;;;;19.40;57.31;95106.91;10371286;28;20038;-21
2022/01/04 06:45:44;;;;;;;4.83;1.50;;;;;;;19.34;57.34;95090.16;10371010;28;20489;-21
2022/01/04 06:50:44;;;;;;;2.53;0.77;;;;;;;19.40;57.12;95095.06;10370414;28;20431;-21
2022/01/04 06:55:50;;;;;;;1.63;0.80;;;;;;;19.39;57.30;95082.41;10370738;28;20288;-21
2022/01/04 07:00:50;;;;;;;2.17;1.08;;;;;;;19.37;57.38;95086.72;10370957;28;20038;-21
2022/01/04 07:05:50;;;;;;;3.13;1.13;;;;;;;19.38;57.39;95111.22;10370735;28;20459;-22
2022/01/04 07:10:51;;;;;;;4.00;1.30;;;;;;;19.37;57.86;95091.78;10370757;28;20287;-21
2022/01/04 07:15:51;;;;;;;3.23;0.83;;;;;;;19.35;57.86;95075.78;10392124;28;20816;-21
2022/01/04 07:20:52;;;;;;;9.50;0.83;;;;;;;19.37;57.80;95089.25;10406683;28;20304;-21
2022/01/04 07:25:52;;;;;;;4.38;1.20;;;;;;;19.37;57.76;95089.25;10410998;28;20990;-21
2022/01/04 07:30:53;;;;;;;2.45;0.57;;;;;;;19.38;57.29;95085.84;10385187;28;20125;-21
2022/01/04 07:35:53;;;;;;;2.93;1.20;;;;;;;19.36;57.95;95090.97;10369392;28;20509;-21
2022/01/04 07:40:54;;;;;;;4.93;1.13;;;;;;;19.38;57.92;95075.69;10369160;28;20046;-21
2022/01/04 07:45:54;;;;;;;5.78;1.23;;;;;;;19.36;58.17;95072.38;10368818;28;20491;-21
2022/01/04 07:50:55;;;;;;;2.50;1.03;;;;;;;19.37;57.71;95079.94;10368201;28;20058;-21
2022/01/04 07:55:56;;;;;;;2.83;1.00;;;;;;;19.29;58.20;95058.19;10369122;28;20044;-21
2022/01/04 08:00:56;;;;;;;2.17;0.88;;;;;;;19.33;58.43;95058.06;10368889;28;20037;-20
2022/01/04 08:05:57;;;;;;;2.37;0.87;;;;;;;19.35;58.27;95070.72;10367316;28;20040;-20
2022/01/04 08:10:57;;;;;;;2.97;0.80;;;;;;;19.29;58.01;95065.81;10368515;28;20034;-21
2022/01/04 08:15:57;;;;;;;3.27;0.80;;;;;;;19.36;57.99;95072.38;10391325;28;20307;-21
2022/01/04 08:20:58;;;;;;;4.00;1.43;;;;;;;19.35;57.88;95063.91;10404940;28;20037;-23
2022/01/04 08:25:58;;;;;;;2.17;0.80;;;;;;;19.35;57.91;95051.22;10408442;28;20377;-21
2022/01/04 08:30:59;;;;;;;2.50;1.30;;;;;;;19.35;58.03;95066.44;10375925;28;20314;-22
2022/01/04 08:35:59;;;;;;;3.08;0.85;;;;;;;19.35;58.13;95065.63;10367424;28;20375;-21
2022/01/04 08:40:59;;;;;;;23.20;2.90;;;;;;;19.30;56.77;95073.38;10367276;28;20056;-21
2022/01/04 08:46:00;;;;;;;4.10;1.03;;;;;;;19.22;55.43;95074.47;10366650;28;21013;-21
2022/01/04 08:51:00;;;;;;;4.25;0.85;;;;;;;19.26;54.71;95073.50;10367589;28;20347;-21
2022/01/04 08:56:01;;;;;;;3.70;0.60;;;;;;;19.24;53.69;95060.06;10366878;28;20034;-21
2022/01/04 09:01:02;;;;;;;4.07;1.00;;;;;;;19.28;54.96;95029.47;10367454;28;20053;-21
2022/01/04 09:06:02;;;;;;;3.05;2.17;;;;;;;19.28;55.04;95036.25;10366709;28;20125;-21
2022/01/04 09:11:04;;;;;;;7.27;2.43;;;;;;;19.25;54.41;95049.03;10367451;28;20038;-21
2022/01/04 09:21:07;;;;;;;7.70;2.83;;;;;;;19.20;54.47;95000.13;10399285;28;20034;-21
2022/01/04 09:26:09;;;;;;;9.13;4.57;;;;;;;19.27;54.76;95017.63;10374412;28;20045;-21
2022/01/04 09:31:10;;;;;;;6.55;3.10;;;;;;;19.32;54.56;95036.09;10374702;28;20038;-21
2022/01/04 09:36:11;;;;;;;8.63;2.95;;;;;;;19.28;54.47;94998.19;10373890;28;20040;-21
2022/01/04 09:41:11;;;;;;;15.60;3.07;;;;;;;19.29;54.84;95004.91;10374052;28;20044;-21
2022/01/04 09:46:12;;;;;;;4.22;2.42;;;;;;;19.23;54.76;94972.09;10373626;28;20071;-21
2022/01/04 09:51:14;;;;;;;5.82;2.60;;;;;;;19.27;54.76;94997.34;10374315;28;20519;-21
2022/01/04 09:56:14;;;;;;;5.00;2.60;;;;;;;19.23;55.11;94984.78;10373005;28;20041;-21
2022/01/04 10:01:26;;;;;;;5.20;3.10;;;;;;;19.24;55.11;94978.88;10372925;28;20034;-22
2022/01/04 10:06:26;;;;;;;7.30;3.40;;;;;;;19.29;55.28;94974.47;10371872;28;20555;-21
2022/01/04 10:11:47;;;;;;;4.43;2.58;;;;;;;19.29;55.38;94954.16;10394541;28;20033;-21
2022/01/04 10:16:58;;;;;;;9.20;2.95;;;;;;;19.31;55.49;94932.94;10402726;28;20072;-22
2022/01/04 10:22:10;;;;;;;5.32;2.70;;;;;;;19.30;55.71;94935.53;10397023;28;20037;-21
2022/01/04 10:27:26;;;;;;;5.68;2.53;;;;;;;19.27;55.82;94900.94;10402539;28;20087;-21
2022/01/04 10:32:26;;;;;;;8.80;3.10;;;;;;;19.31;56.06;94901.66;10410629;28;20095;-22
2022/01/04 10:37:37;;;;;;;7.10;2.53;;;;;;;19.30;56.18;94903.38;10395688;28;20577;-21
2022/01/04 10:42:38;;;;;;;9.02;3.35;;;;;;;19.37;55.72;94893.88;10409220;28;20055;-21
2022/01/04 10:47:38;;;;;;;6.75;2.70;;;;;;;19.39;55.90;94884.47;10395315;28;20083;-22
2022/01/04 10:52:39;;;;;;;7.83;2.60;;;;;;;19.44;55.87;94902.94;10392025;28;20524;-22
2022/01/04 10:57:39;;;;;;;4.87;2.67;;;;;;;19.44;55.95;94900.41;10407137;28;20288;-21
2022/01/04 11:02:40;;;;;;;10.63;2.92;;;;;;;19.43;56.49;94931.75;10402277;28;20304;-21
2022/01/04 11:08:03;;;;;;;7.50;2.75;;;;;;;19.44;57.10;94928.31;10399276;28;20431;-21
2022/01/04 11:13:04;;;;;;;8.45;3.28;;;;;;;19.43;57.19;94924.94;10399835;28;20118;-22
2022/01/04 11:18:05;;;;;;;11.27;2.90;;;;;;;19.48;57.08;94914.63;10404565;28;20125;-21
2022/01/04 11:23:06;;;;;;;7.82;2.85;;;;;;;19.52;57.16;94952.56;10407726;28;20045;-21
2022/01/04 11:28:09;;;;;;;12.95;3.30;;;;;;;19.49;57.33;94967.91;10408984;28;20037;-21
2022/01/04 11:33:32;;;;;;;7.80;3.50;;;;;;;19.49;57.61;94992.47;10374011;28;20406;-22
2022/01/04 11:38:35;;;;;;;12.45;4.45;;;;;;;19.45;57.65;95036.56;10406449;28;20095;-21
2022/01/04 11:43:38;;;;;;;12.20;2.95;;;;;;;19.38;57.97;95025.78;10386814;28;20030;-21
2022/01/04 11:48:41;;;;;;;7.80;3.10;;;;;;;19.46;58.15;95028.91;10368930;28;20044;-21
2022/01/04 11:54:14;;;;;;;11.35;3.20;;;;;;;19.42;57.47;94991.00;10368921;28;20065;-21
2022/01/04 11:59:36;;;;;;;11.68;3.70;;;;;;;19.46;57.20;95007.75;10367894;28;20045;-21
2022/01/04 12:04:52;;;;;;;9.43;3.72;;;;;;;19.44;57.69;95015.41;10368527;28;20033;-21
2022/01/04 12:10:21;;;;;;;10.68;3.50;;;;;;;19.54;57.00;95010.91;10377107;28;20030;-21
2022/01/04 12:15:33;;;;;;;12.88;3.67;;;;;;;19.54;56.92;95015.97;10386901;28;20076;-21
2022/01/04 12:20:43;;;;;;;7.80;3.33;;;;;;;19.42;57.36;94980.84;10384508;28;20034;-21
2022/01/04 12:26:11;;;;;;;19.38;4.55;;;;;;;19.46;57.86;94949.41;10367699;28;20042;-21
2022/01/04 12:31:16;;;;;;;19.20;4.95;;;;;;;19.44;57.57;94953.69;10366137;28;20057;-21
2022/01/04 12:36:37;;;;;;;7.72;3.78;;;;;;;19.43;57.74;94959.66;10367416;28;20037;-21
2022/01/04 12:41:39;;;;;;;17.70;4.53;;;;;;;19.41;57.80;94956.34;10366383;28;20037;-21
2022/01/04 12:46:46;;;;;;;11.30;3.92;;;;;;;19.42;57.92;94988.44;10366263;28;20041;-21
2022/01/04 12:51:53;;;;;;;11.23;3.60;;;;;;;19.44;58.19;94991.75;10380072;28;20400;-21
2022/01/04 12:57:18;;;;;;;9.65;3.67;;;;;;;19.28;57.91;94937.28;10410444;28;20052;-22
2022/01/04 13:02:27;;;;;;;11.13;3.45;;;;;;;19.50;57.67;94971.28;10402767;28;20032;-21
2022/01/04 13:07:38;;;;;;;9.38;3.45;;;;;;;19.54;57.75;94995.66;10426697;28;20033;-21
2022/01/04 13:12:44;;;;;;;15.70;3.53;;;;;;;19.60;57.46;94987.88;10412182;28;20042;-21
2022/01/04 13:17:47;;;;;;;13.25;3.83;;;;;;;19.61;57.35;95012.38;10424440;28;20034;-22
2022/01/04 13:22:48;;;;;;;19.40;4.97;;;;;;;19.61;57.53;95032.69;10415201;28;20037;-21
2022/01/04 13:27:49;;;;;;;11.52;3.85;;;;;;;19.65;57.30;95013.91;10406575;28;20088;-21
2022/01/04 13:33:00;;;;;;;17.17;5.47;;;;;;;19.61;57.42;94961.59;10400912;28;20049;-21
2022/01/04 13:38:12;;;;;;;10.73;3.40;;;;;;;19.60;57.96;94968.38;10418678;28;20025;-21
2022/01/04 13:43:13;;;;;;;11.55;3.22;;;;;;;19.45;58.13;94922.34;10422564;28;20567;-21
2022/01/04 13:48:31;;;;;;;17.45;4.15;;;;;;;19.50;58.58;94949.25;10411152;28;20041;-21
2022/01/04 13:53:40;;;;;;;12.23;4.78;;;;;;;19.40;58.73;94947.03;10415916;28;20497;-21
2022/01/04 13:58:45;;;;;;;11.75;4.40;;;;;;;19.42;58.54;94945.31;10433837;28;20048;-21
2022/01/04 14:03:52;;;;;;;15.20;3.90;;;;;;;19.43;58.36;94959.66;10421305;28;20515;-21
2022/01/04 14:08:53;;;;;;;10.35;4.07;;;;;;;19.49;58.41;94951.84;10402660;28;20029;-21
2022/01/04 14:13:54;;;;;;;9.65;2.97;;;;;;;19.49;58.28;94951.84;10404626;28;20045;-22
2022/01/04 14:19:14;;;;;;;9.45;3.33;;;;;;;19.48;58.29;94955.25;10423209;28;20040;-21
2022/01/04 14:24:35;;;;;;;9.75;3.63;;;;;;;19.47;58.61;94923.13;10372277;28;20042;-21
2022/01/04 14:29:42;;;;;;;11.32;3.00;;;;;;;19.42;58.63;94942.78;10380490;28;20511;-21
2022/01/04 14:34:42;;;;;;;;;;;;;;;19.41;58.49;94923.34;10389194;28;20042;-21
2022/01/04 14:39:43;;;;;;;9.67;2.93;;;;;;;19.41;58.73;94953.81;10414859;28;19921;-21
2022/01/04 14:44:44;;;;;;;10.05;2.55;;;;;;;19.43;58.02;94939.34;10375782;28;20048;-21
2022/01/04 14:49:44;;;;;;;6.72;3.05;;;;;;;19.32;57.75;94910.94;10382343;28;20036;-21
2022/01/04 14:54:45;;;;;;;10.15;2.42;;;;;;;19.37;58.52;94944.63;10393528;28;20530;-21
2022/01/04 14:59:45;;;;;;;8.17;2.87;;;;;;;19.38;58.27;94976.72;10397560;28;20048;-21
2022/01/04 15:04:46;;;;;;;15.97;3.07;;;;;;;19.35;58.42;94966.66;10376143;28;20328;-22
2022/01/04 15:09:46;;;;;;;6.40;3.00;;;;;;;19.35;58.47;94990.31;10380485;28;20624;-22
2022/01/04 15:14:47;;;;;;;10.25;3.15;;;;;;;19.34;58.27;94991.19;10398158;28;20292;-21
2022/01/04 15:19:48;;;;;;;10.85;4.50;;;;;;;19.35;58.16;95020.78;10395090;28;20455;-22
2022/01/04 15:24:51;;;;;;;9.05;4.53;;;;;;;19.36;58.13;95031.75;10370209;28;20042;-22
2022/01/04 15:29:52;;;;;;;11.05;5.30;;;;;;;19.34;58.23;95038.59;10369674;28;20468;-22
2022/01/04 15:34:53;;;;;;;9.93;4.82;;;;;;;19.34;58.01;95028.44;10370099;28;20503;-22
2022/01/04 15:39:53;;;;;;;15.10;5.70;;;;;;;19.29;58.09;95012.53;10368749;28;20041;-22
2022/01/04 15:44:54;;;;;;;16.02;5.85;;;;;;;19.31;58.04;95004.00;10381843;28;20052;-22
2022/01/04 15:49:54;;;;;;;17.88;8.40;;;;;;;19.30;58.04;95001.50;10395747;28;20029;-23
2022/01/04 15:54:54;;;;;;;15.05;8.18;;;;;;;19.32;57.87;95003.13;10400511;28;20041;-21
2022/01/04 15:59:55;;;;;;;16.73;9.23;;;;;;;19.34;57.99;95018.31;10393274;28;20741;-22
2022/01/04 16:04:55;;;;;;;18.88;8.63;;;;;;;19.34;57.87;95005.63;10400882;28;20729;-22
2022/01/04 16:09:57;;;;;;;15.20;9.33;;;;;;;19.34;58.08;95013.22;10402693;28;20034;-21
2022/01/04 16:15:01;;;;;;;17.75;9.10;;;;;;;19.33;58.18;95016.66;10384939;28;20042;-21
2022/01/04 16:25:25;;;;;;;13.45;8.27;;;;;;;19.33;58.21;94987.00;10390732;28;20037;-21
2022/01/04 16:30:26;;;;;;;17.20;9.60;;;;;;;19.32;58.37;95009.88;10387271;28;20466;-21
2022/01/04 16:35:26;;;;;;;14.50;8.13;;;;;;;19.28;58.38;95006.63;10388629;28;20025;-22
2022/01/04 16:40:26;;;;;;;14.88;7.97;;;;;;;19.30;57.76;95002.34;10366895;28;20813;-21
2022/01/04 16:45:27;;;;;;;12.83;9.00;;;;;;;19.32;58.28;94984.50;10366375;28;20034;-21
2022/01/04 16:50:28;;;;;;;14.82;8.65;;;;;;;19.32;58.28;94998.03;10366602;28;20300;-21
2022/01/04 16:55:29;;;;;;;18.70;10.15;;;;;;;19.33;58.17;95006.50;10366478;28;20068;-21
2022/01/04 17:00:29;;;;;;;14.27;9.48;;;;;;;19.39;57.83;94998.66;10367697;28;20119;-21
2022/01/04 17:05:30;;;;;;;15.17;9.83;;;;;;;19.41;57.82;94989.34;10367043;28;20045;-21
2022/01/04 17:10:32;;;;;;;12.25;8.63;;;;;;;19.48;57.68;94988.22;10382960;28;20284;-21
2022/01/04 17:15:33;;;;;;;16.67;8.70;;;;;;;19.52;57.58;94992.34;10385799;28;20619;-21
2022/01/04 17:20:34;;;;;;;16.77;9.43;;;;;;;19.43;57.95;95002.78;10375388;28;20034;-21
2022/01/04 17:25:36;;;;;;;17.08;9.10;;;;;;;19.42;57.92;95017.19;10366716;28;20289;-21
2022/01/04 17:30:36;;;;;;;14.00;9.52;;;;;;;19.37;58.37;95028.34;10366521;28;20022;-21
2022/01/04 17:35:37;;;;;;;13.27;8.80;;;;;;;19.37;58.25;95043.56;10368547;28;20030;-21
2022/01/04 17:40:37;;;;;;;14.27;8.07;;;;;;;19.36;58.17;95059.69;10373852;28;20030;-21
2022/01/04 17:45:38;;;;;;;8.98;7.15;;;;;;;19.33;58.27;95050.44;10373965;28;20030;-21
2022/01/04 17:50:39;;;;;;;11.10;7.22;;;;;;;19.36;58.01;95072.38;10397404;28;20642;-21
2022/01/04 17:55:41;;;;;;;11.30;7.97;;;;;;;19.36;57.84;95069.81;10403885;28;20045;-22
2022/01/04 18:00:41;;;;;;;11.75;7.32;;;;;;;19.35;58.18;95070.72;10400406;28;20507;-22
2022/01/04 18:05:42;;;;;;;10.50;7.07;;;;;;;19.43;57.88;95076.38;10403954;28;20061;-22
2022/01/04 18:10:42;;;;;;;10.38;6.85;;;;;;;19.39;57.90;95102.72;10413869;28;20116;-22
2022/01/04 18:15:43;;;;;;;12.98;8.23;;;;;;;19.36;58.22;95090.97;10398541;28;20407;-22
2022/01/04 18:20:45;;;;;;;10.60;7.50;;;;;;;19.36;58.49;95143.41;10390914;28;20049;-22
2022/01/04 18:25:46;;;;;;;13.63;8.18;;;;;;;19.39;58.65;95148.41;10372146;28;20034;-22
2022/01/04 18:30:47;;;;;;;10.87;7.20;;;;;;;19.42;58.55;95161.03;10372043;28;20030;-22
2022/01/04 18:35:47;;;;;;;12.88;8.48;;;;;;;19.35;58.88;95162.88;10371922;28;20296;-22
2022/01/04 18:40:50;;;;;;;13.68;7.95;;;;;;;19.40;58.75;95180.50;10371608;28;20658;-22
2022/01/04 18:45:50;;;;;;;12.60;7.22;;;;;;;19.38;58.76;95182.25;10371259;28;20042;-22
2022/01/04 18:50:51;;;;;;;12.13;7.90;;;;;;;19.38;59.14;95203.41;10389876;28;20057;-22
2022/01/04 18:55:51;;;;;;;13.60;8.10;;;;;;;19.44;58.77;95210.03;10407223;28;20045;-22
2022/01/04 19:00:52;;;;;;;14.83;7.50;;;;;;;19.40;58.90;95227.03;10398776;28;20168;-22
2022/01/04 19:05:52;;;;;;;17.65;7.60;;;;;;;19.37;58.69;95231.34;10400936;28;20304;-22
2022/01/04 19:10:56;;;;;;;13.63;7.40;;;;;;;19.32;58.75;95235.72;10401418;28;20044;-22
2022/01/04 19:15:57;;;;;;;11.55;8.40;;;;;;;19.39;58.49;95257.50;10405306;28;20120;-22
2022/01/04 19:21:01;;;;;;;12.18;7.13;;;;;;;19.35;59.01;95268.63;10402992;28;20456;-22
2022/01/04 19:26:02;;;;;;;12.18;6.88;;;;;;;19.35;58.76;95277.06;10406665;28;20033;-22
2022/01/04 19:31:04;;;;;;;12.85;6.55;;;;;;;19.36;58.69;95265.22;10399245;28;20496;-22
2022/01/04 19:36:18;;;;;;;11.45;6.97;;;;;;;19.41;58.74;95271.03;10392297;28;20044;-22
2022/01/04 19:41:28;;;;;;;10.38;6.93;;;;;;;19.37;58.68;95277.03;10403112;28;20091;-22
2022/01/04 19:46:29;;;;;;;9.32;6.28;;;;;;;19.39;58.60;95285.44;10403425;28;20463;-22
2022/01/04 19:51:30;;;;;;;10.48;6.18;;;;;;;19.41;57.81;95268.47;10399889;28;20073;-22
2022/01/04 19:56:31;;;;;;;8.02;6.10;;;;;;;19.39;58.50;95285.44;10404808;28;20116;-22
2022/01/04 20:01:31;;;;;;;11.98;6.88;;;;;;;19.37;58.58;95285.50;10392426;28;20385;-21
2022/01/04 20:06:34;;;;;;;9.52;6.22;;;;;;;19.36;58.52;95286.38;10402725;28;20037;-22
2022/01/04 20:11:34;;;;;;;9.63;6.65;;;;;;;19.35;58.64;95288.94;10405727;28;20037;-22
2022/01/04 20:16:35;;;;;;;8.85;5.90;;;;;;;19.35;58.54;95292.28;10393558;28;20041;-22
2022/01/04 20:21:36;;;;;;;9.20;6.00;;;;;;;19.32;58.68;95289.00;10393012;28;20041;-22
2022/01/04 20:26:38;;;;;;;8.70;5.50;;;;;;;19.35;58.42;95266.91;10403934;28;20435;-22
2022/01/04 20:31:38;;;;;;;9.85;5.90;;;;;;;19.41;58.41;95271.03;10405026;28;20041;-22
2022/01/04 20:36:39;;;;;;;9.77;6.60;;;;;;;19.44;58.14;95283.63;10395534;28;20044;-22
2022/01/04 20:41:41;;;;;;;9.40;5.93;;;;;;;19.37;58.20;95282.09;10392958;28;20041;-22
2022/01/04 20:46:41;;;;;;;6.63;5.03;;;;;;;19.38;58.41;95271.94;10397211;28;20295;-22
2022/01/04 20:51:41;;;;;;;9.10;5.93;;;;;;;19.37;58.40;95279.56;10399667;28;20034;-21
2022/01/04 20:56:42;;;;;;;8.73;5.63;;;;;;;19.42;58.35;95291.25;10408037;28;20284;-22
2022/01/04 21:01:42;;;;;;;10.77;5.70;;;;;;;19.41;58.40;95278.63;10372506;28;20030;-22
2022/01/04 21:06:42;;;;;;;10.20;5.63;;;;;;;19.38;58.31;95273.63;10387161;28;20311;-22
2022/01/04 21:11:43;;;;;;;7.87;5.17;;;;;;;19.41;58.41;95283.72;10388771;28;20226;-21
2022/01/04 21:16:43;;;;;;;7.47;5.72;;;;;;;19.45;58.42;95277.66;10412096;28;20030;-22
2022/01/04 21:21:44;;;;;;;6.73;5.20;;;;;;;19.43;59.08;95300.53;10384948;28;20096;-21
2022/01/04 21:26:44;;;;;;;9.02;5.55;;;;;;;19.44;59.56;95294.59;10374676;28;20288;-21
2022/01/04 21:31:45;;;;;;;8.07;5.57;;;;;;;19.44;59.06;95288.69;10380948;28;20053;-22
2022/01/04 21:36:45;;;;;;;8.63;5.00;;;;;;;19.38;58.83;95286.31;10393438;28;20402;-22
2022/01/04 21:41:46;;;;;;;7.90;5.87;;;;;;;19.34;59.33;95287.28;10394137;28;20096;-22
2022/01/04 21:46:47;;;;;;;10.95;5.20;;;;;;;19.34;58.93;95284.75;10394005;28;20353;-22
2022/01/04 21:51:48;;;;;;;11.35;5.70;;;;;;;19.35;59.37;95294.81;10392847;28;20574;-21
2022/01/04 21:56:48;;;;;;;8.55;5.30;;;;;;;19.35;59.23;95304.97;10373157;28;20088;-22
2022/01/04 22:01:50;;;;;;;9.47;5.50;;;;;;;19.32;59.37;95310.16;10373397;28;20532;-22
2022/01/04 22:06:50;;;;;;;9.95;5.38;;;;;;;19.33;59.20;95341.44;10373026;28;20076;-22
2022/01/04 22:11:50;;;;;;;6.90;5.20;;;;;;;19.32;59.58;95344.81;10372760;28;20034;-22
2022/01/04 22:16:51;;;;;;;8.07;5.13;;;;;;;19.31;59.99;95338.09;10402920;28;20276;-22
2022/01/04 22:21:51;;;;;;;10.80;5.43;;;;;;;19.32;59.55;95334.66;10381281;28;20371;-22
2022/01/04 22:26:52;;;;;;;8.52;5.00;;;;;;;19.31;59.41;95348.22;10372449;28;20030;-22
2022/01/04 22:31:52;;;;;;;8.80;4.63;;;;;;;19.31;59.44;95345.69;10372148;28;20550;-21
2022/01/04 22:36:52;;;;;;;7.87;5.00;;;;;;;19.31;59.58;95350.78;10371607;28;20057;-22
2022/01/04 22:41:53;;;;;;;6.43;4.70;;;;;;;19.31;59.54;95348.22;10371854;28;20049;-22
2022/01/04 22:46:55;;;;;;;9.93;4.63;;;;;;;19.30;59.53;95347.41;10370997;28;20385;-22
2022/01/04 22:51:56;;;;;;;9.63;5.00;;;;;;;19.30;59.50;95366.88;10397249;28;20291;-22
2022/01/04 22:56:56;;;;;;;10.88;4.82;;;;;;;19.31;59.45;95358.38;10412066;28;20033;-22
2022/01/04 23:01:57;;;;;;;7.60;4.65;;;;;;;19.31;59.34;95354.16;10371211;28;20138;-22
2022/01/04 23:06:57;;;;;;;7.30;4.57;;;;;;;19.34;59.56;95343.91;10370170;28;20050;-22
2022/01/04 23:11:58;;;;;;;8.45;5.07;;;;;;;19.32;59.34;95339.75;10370511;28;20034;-22
2022/01/04 23:16:59;;;;;;;6.60;4.78;;;;;;;19.32;59.27;95329.59;10402592;28;20041;-22
2022/01/04 23:22:00;;;;;;;6.30;4.60;;;;;;;19.32;59.32;95319.44;10379840;28;20393;-22
2022/01/04 23:27:00;;;;;;;7.90;4.30;;;;;;;19.31;59.20;95320.31;10370558;28;20034;-22
2022/01/04 23:32:00;;;;;;;6.67;4.30;;;;;;;19.30;59.20;95311.03;10370542;28;20034;-22